Time;durP1;ratioP1;P1;durP2;ratioP2;P2;SDS_P1;SDS_P2;PMS_P1;PMS_P2;Temp;Humidity;BMP_temperature;BMP_pressure;BME280_temperature;BME280_humidity;BME280_pressure;Samples;Min_cycle;Max_cycle;Signal;HPM_P1;HPM_P2
2021/04/10 00:02:21;;;;;;;17.93;13.60;;;;;;;;;;5074371;28;20484;-52
2021/04/10 00:04:48;;;;;;;20.10;14.40;;;;;;;;;;5074621;28;20453;-58
2021/04/10 00:07:16;;;;;;;20.20;16.10;;;;;;;;;;5070900;28;20504;-54
2021/04/10 00:09:43;;;;;;;20.53;15.83;;;;;;;;;;5054909;28;20442;-55
2021/04/10 00:12:10;;;;;;;22.23;15.10;;;;;;;;;;5066453;28;20598;-53
2021/04/10 00:14:38;;;;;;;22.30;14.03;;;;;;;;;;5075014;28;20472;-56
2021/04/10 00:17:28;;;;;;;22.63;15.20;;;;;;;;;;5074603;28;20507;-57
2021/04/10 00:19:55;;;;;;;21.33;15.63;;;;;;;;;;5073610;28;20491;-50
2021/04/10 00:22:23;;;;;;;21.27;13.80;;;;;;;;;;5071595;28;20485;-56
2021/04/10 00:24:52;;;;;;;22.60;13.77;;;;;;;;;;5055184;28;20445;-55
2021/04/10 00:27:19;;;;;;;18.80;13.80;;;;;;;;;;5055154;28;20494;-55
2021/04/10 00:29:48;;;;;;;46.80;33.67;;;;;;;;;;5055292;28;20454;-56
2021/04/10 00:32:23;;;;;;;29.87;19.50;;;;;;;;;;5055253;28;20453;-53
2021/04/10 00:34:51;;;;;;;24.60;15.80;;;;;;;;;;5055056;28;20465;-55
2021/04/10 00:37:17;;;;;;;17.63;12.90;;;;;;;;;;5056023;28;20453;-55
2021/04/10 00:42:48;;;;;;;20.70;14.37;;;;;;;;;;5058628;28;20178;-54
2021/04/10 00:45:20;;;;;;;16.90;13.70;;;;;;;;;;5058310;28;20462;-49
2021/04/10 00:47:54;;;;;;;18.30;14.00;;;;;;;;;;5058269;28;20250;-49
2021/04/10 00:50:21;;;;;;;17.40;14.57;;;;;;;;;;5071983;28;20492;-55
2021/04/10 00:52:49;;;;;;;23.47;16.67;;;;;;;;;;5078161;28;20456;-57
2021/04/10 00:55:16;;;;;;;21.17;16.80;;;;;;;;;;5078540;28;20441;-50
2021/04/10 00:57:42;;;;;;;22.63;16.07;;;;;;;;;;5078261;28;20437;-52
2021/04/10 01:00:11;;;;;;;23.63;16.57;;;;;;;;;;5077993;28;20487;-53
2021/04/10 01:02:39;;;;;;;26.08;16.08;;;;;;;;;;5077855;28;20487;-52
2021/04/10 01:05:07;;;;;;;21.73;15.80;;;;;;;;;;5077974;28;20210;-55
2021/04/10 01:07:40;;;;;;;23.30;13.47;;;;;;;;;;5078171;28;20295;-57
2021/04/10 01:10:07;;;;;;;22.33;15.27;;;;;;;;;;5074394;28;20480;-56
2021/04/10 01:12:39;;;;;;;18.40;15.30;;;;;;;;;;5078307;28;20460;-56
2021/04/10 01:15:35;;;;;;;24.97;15.47;;;;;;;;;;5078800;28;20469;-53
2021/04/10 01:18:09;;;;;;;19.07;14.63;;;;;;;;;;5076589;28;20489;-50
2021/04/10 01:20:52;;;;;;;24.10;17.20;;;;;;;;;;5075676;28;20429;-53
2021/04/10 01:23:51;;;;;;;20.80;17.33;;;;;;;;;;5078557;28;20459;-51
2021/04/10 01:29:30;;;;;;;19.10;15.67;;;;;;;;;;5071187;28;20483;-57
2021/04/10 01:31:57;;;;;;;18.63;15.40;;;;;;;;;;5078058;28;20457;-50
2021/04/10 01:34:29;;;;;;;23.23;16.57;;;;;;;;;;5078070;28;20468;-50
2021/04/10 01:36:57;;;;;;;27.73;18.30;;;;;;;;;;5077836;28;20516;-57
2021/04/10 01:39:33;;;;;;;20.13;16.40;;;;;;;;;;5079297;28;20458;-53
2021/04/10 01:42:00;;;;;;;22.00;15.30;;;;;;;;;;5078461;28;20186;-50
2021/04/10 01:44:30;;;;;;;20.03;16.40;;;;;;;;;;5078627;28;20433;-61
2021/04/10 01:47:09;;;;;;;24.70;16.23;;;;;;;;;;5077249;28;21158;-55
2021/04/10 01:49:36;;;;;;;19.57;15.30;;;;;;;;;;5057265;28;20444;-47
2021/04/10 01:52:04;;;;;;;20.60;16.00;;;;;;;;;;5057862;28;20438;-50
2021/04/10 01:54:33;;;;;;;20.50;15.77;;;;;;;;;;5058137;28;20431;-46
2021/04/10 01:57:00;;;;;;;18.58;15.13;;;;;;;;;;5057916;28;20206;-56
2021/04/10 01:59:27;;;;;;;19.08;13.40;;;;;;;;;;5057671;28;20195;-48
2021/04/10 02:04:58;;;;;;;20.10;13.43;;;;;;;;;;5075703;28;20468;-50
2021/04/10 02:07:26;;;;;;;16.33;13.87;;;;;;;;;;5077674;28;20481;-51
2021/04/10 02:10:02;;;;;;;16.10;13.23;;;;;;;;;;5077604;28;20476;-51
2021/04/10 02:12:29;;;;;;;15.90;12.83;;;;;;;;;;5067851;28;20480;-55
2021/04/10 02:14:58;;;;;;;23.27;13.97;;;;;;;;;;5078186;28;20457;-52
2021/04/10 02:17:25;;;;;;;16.80;12.57;;;;;;;;;;5077436;28;20468;-54
2021/04/10 02:19:52;;;;;;;19.17;14.15;;;;;;;;;;5077066;28;20457;-53
2021/04/10 02:22:22;;;;;;;20.40;15.40;;;;;;;;;;5077575;28;20221;-54
2021/04/10 02:24:49;;;;;;;25.63;14.63;;;;;;;;;;5077278;28;20207;-51
2021/04/10 02:27:16;;;;;;;20.93;14.23;;;;;;;;;;5076900;28;20476;-54
2021/04/10 02:29:54;;;;;;;20.00;14.40;;;;;;;;;;5077101;28;20449;-50
2021/04/10 02:32:24;;;;;;;17.10;13.17;;;;;;;;;;5075034;28;20485;-52
2021/04/10 02:34:56;;;;;;;21.02;13.02;;;;;;;;;;5076443;28;20449;-53
2021/04/10 02:37:35;;;;;;;17.93;13.13;;;;;;;;;;5077408;28;20211;-52
2021/04/10 02:40:02;;;;;;;21.50;15.60;;;;;;;;;;5076905;28;20452;-50
2021/04/10 02:42:31;;;;;;;19.30;14.73;;;;;;;;;;5077009;28;20500;-56
2021/04/10 02:45:01;;;;;;;16.60;14.17;;;;;;;;;;5077143;28;20421;-53
2021/04/10 02:47:28;;;;;;;20.17;14.75;;;;;;;;;;5076863;28;20519;-52
2021/04/10 02:49:56;;;;;;;17.60;14.17;;;;;;;;;;5077092;28;20253;-53
2021/04/10 02:52:30;;;;;;;20.90;14.77;;;;;;;;;;5076829;28;20538;-51
2021/04/10 02:54:58;;;;;;;19.27;14.20;;;;;;;;;;5077234;28;20445;-53
2021/04/10 02:57:29;;;;;;;18.10;14.97;;;;;;;;;;5076711;28;20469;-61
2021/04/10 03:00:00;;;;;;;22.42;15.40;;;;;;;;;;5076158;28;20433;-52
2021/04/10 03:02:27;;;;;;;27.23;15.90;;;;;;;;;;5076187;28;20210;-52
2021/04/10 03:04:58;;;;;;;21.37;16.60;;;;;;;;;;5076546;28;20461;-55
2021/04/10 03:07:34;;;;;;;22.52;15.43;;;;;;;;;;5076619;28;20472;-54
2021/04/10 03:10:01;;;;;;;18.38;15.32;;;;;;;;;;5076089;28;20226;-55
2021/04/10 03:12:44;;;;;;;21.70;16.83;;;;;;;;;;5076288;28;20183;-59
2021/04/10 03:15:13;;;;;;;23.50;16.50;;;;;;;;;;5076260;28;20560;-53
2021/04/10 03:17:41;;;;;;;19.80;15.80;;;;;;;;;;5076083;28;20445;-50
2021/04/10 03:22:57;;;;;;;24.20;16.65;;;;;;;;;;5074206;28;20221;-53
2021/04/10 03:25:24;;;;;;;21.33;16.40;;;;;;;;;;5075711;28;20207;-56
2021/04/10 03:27:57;;;;;;;21.10;16.92;;;;;;;;;;5076318;28;20523;-52
2021/04/10 03:30:24;;;;;;;26.73;17.08;;;;;;;;;;5087576;28;20210;-51
2021/04/10 03:32:51;;;;;;;21.90;17.40;;;;;;;;;;5090743;28;20205;-52
2021/04/10 03:35:26;;;;;;;21.73;17.33;;;;;;;;;;5075153;28;20500;-57
2021/04/10 03:37:53;;;;;;;21.55;17.88;;;;;;;;;;5075576;28;20453;-50
2021/04/10 03:40:21;;;;;;;21.90;16.90;;;;;;;;;;5075837;28;20210;-53
2021/04/10 03:42:48;;;;;;;24.57;18.13;;;;;;;;;;5075532;28;20445;-54
2021/04/10 03:45:17;;;;;;;23.97;18.07;;;;;;;;;;5075473;28;20461;-52
2021/04/10 03:47:56;;;;;;;21.90;17.85;;;;;;;;;;5075472;28;20530;-52
2021/04/10 03:50:24;;;;;;;24.23;18.57;;;;;;;;;;5075671;28;20195;-50
2021/04/10 03:52:51;;;;;;;24.90;18.80;;;;;;;;;;5075687;28;20460;-54
2021/04/10 03:58:24;;;;;;;27.20;19.40;;;;;;;;;;5075378;28;20415;-57
2021/04/10 04:00:51;;;;;;;26.50;20.53;;;;;;;;;;5075227;28;20445;-50
2021/04/10 04:03:19;;;;;;;26.40;18.37;;;;;;;;;;5075174;28;20452;-57
2021/04/10 04:05:46;;;;;;;22.10;19.03;;;;;;;;;;5074869;28;20513;-55
2021/04/10 04:08:18;;;;;;;27.50;20.57;;;;;;;;;;5075122;28;20481;-50
2021/04/10 04:10:45;;;;;;;25.57;20.70;;;;;;;;;;5074969;28;20479;-51
2021/04/10 04:13:12;;;;;;;29.60;20.53;;;;;;;;;;5078059;28;20445;-53
2021/04/10 04:15:43;;;;;;;28.90;21.50;;;;;;;;;;5079285;28;20468;-52
2021/04/10 04:18:10;;;;;;;24.57;19.73;;;;;;;;;;5059337;28;20457;-58
2021/04/10 04:20:37;;;;;;;28.50;21.40;;;;;;;;;;5073740;28;20467;-55
2021/04/10 04:23:08;;;;;;;30.07;21.33;;;;;;;;;;5090952;28;20440;-55
2021/04/10 04:25:36;;;;;;;28.33;21.80;;;;;;;;;;5098721;28;20462;-55
2021/04/10 04:28:09;;;;;;;30.73;22.77;;;;;;;;;;5092038;28;20487;-51
2021/04/10 04:30:42;;;;;;;33.58;23.20;;;;;;;;;;5095758;28;20468;-53
2021/04/10 04:33:11;;;;;;;26.20;20.50;;;;;;;;;;5097205;28;20240;-52
2021/04/10 04:35:38;;;;;;;31.70;24.53;;;;;;;;;;5098227;28;20471;-51
2021/04/10 04:38:10;;;;;;;34.10;25.10;;;;;;;;;;5098180;28;20459;-51
2021/04/10 04:40:39;;;;;;;43.10;26.30;;;;;;;;;;5098449;28;20749;-57
2021/04/10 04:43:05;;;;;;;32.73;24.80;;;;;;;;;;5081854;28;20416;-51
2021/04/10 04:45:51;;;;;;;34.53;26.85;;;;;;;;;;5098015;28;20455;-51
2021/04/10 04:48:19;;;;;;;32.83;25.43;;;;;;;;;;5098969;28;20210;-52
2021/04/10 04:50:46;;;;;;;38.63;27.60;;;;;;;;;;5098615;28;20463;-51
2021/04/10 04:53:30;;;;;;;33.50;25.67;;;;;;;;;;5098526;28;20194;-54
2021/04/10 04:56:04;;;;;;;38.60;25.87;;;;;;;;;;5097748;28;20482;-50
2021/04/10 04:58:32;;;;;;;35.87;26.50;;;;;;;;;;5090999;28;20475;-46
2021/04/10 05:01:15;;;;;;;32.00;26.10;;;;;;;;;;5098078;28;20508;-54
2021/04/10 05:03:44;;;;;;;41.30;27.97;;;;;;;;;;5097866;28;20452;-56
2021/04/10 05:06:11;;;;;;;37.67;26.90;;;;;;;;;;5098304;28;20444;-52
2021/04/10 05:08:43;;;;;;;37.43;28.10;;;;;;;;;;5097855;28;20500;-57
2021/04/10 05:11:11;;;;;;;36.70;27.00;;;;;;;;;;5083521;28;20516;-55
2021/04/10 05:13:39;;;;;;;38.60;28.90;;;;;;;;;;5084837;28;20507;-50
2021/04/10 05:16:17;;;;;;;38.30;27.23;;;;;;;;;;5077271;28;20461;-55
2021/04/10 05:18:45;;;;;;;38.23;27.50;;;;;;;;;;5069717;28;20465;-47
2021/04/10 05:21:12;;;;;;;37.30;27.17;;;;;;;;;;5076883;28;20492;-55
2021/04/10 05:23:39;;;;;;;37.57;27.73;;;;;;;;;;5077214;28;20480;-53
2021/04/10 05:26:06;;;;;;;38.17;28.47;;;;;;;;;;5077703;28;20464;-56
2021/04/10 05:28:39;;;;;;;38.00;28.48;;;;;;;;;;5077502;28;20815;-51
2021/04/10 05:31:09;;;;;;;40.80;27.90;;;;;;;;;;5087416;28;20505;-52
2021/04/10 05:33:38;;;;;;;43.00;30.07;;;;;;;;;;5078475;28;20504;-52
2021/04/10 05:36:18;;;;;;;36.40;26.13;;;;;;;;;;5077043;28;20628;-45
2021/04/10 05:38:46;;;;;;;41.83;29.25;;;;;;;;;;5077268;28;20546;-55
2021/04/10 05:41:13;;;;;;;40.10;27.47;;;;;;;;;;5077310;28;20198;-54
2021/04/10 05:43:41;;;;;;;38.07;27.90;;;;;;;;;;5087491;28;20464;-59
2021/04/10 05:46:08;;;;;;;44.65;28.90;;;;;;;;;;5097989;28;20495;-56
2021/04/10 05:48:35;;;;;;;34.93;27.23;;;;;;;;;;5085245;28;20227;-55
2021/04/10 05:51:05;;;;;;;37.27;28.37;;;;;;;;;;5057604;28;20457;-55
2021/04/10 05:53:33;;;;;;;38.70;28.37;;;;;;;;;;5060305;28;20492;-53
2021/04/10 05:56:00;;;;;;;37.23;27.43;;;;;;;;;;5077154;28;20453;-55
2021/04/10 05:58:27;;;;;;;38.33;28.00;;;;;;;;;;5077469;28;20444;-54
2021/04/10 06:00:54;;;;;;;40.10;28.00;;;;;;;;;;5076867;28;20441;-52
2021/04/10 06:03:21;;;;;;;39.53;28.53;;;;;;;;;;5081432;28;20442;-50
2021/04/10 06:05:49;;;;;;;39.23;27.70;;;;;;;;;;5096489;28;20467;-51
2021/04/10 06:08:16;;;;;;;37.20;28.30;;;;;;;;;;5092419;28;20469;-57
2021/04/10 06:10:43;;;;;;;35.75;27.27;;;;;;;;;;5076209;28;20485;-58
2021/04/10 06:13:10;;;;;;;35.33;27.23;;;;;;;;;;5076276;28;20230;-53
2021/04/10 06:15:38;;;;;;;35.70;26.07;;;;;;;;;;5076425;28;20464;-56
2021/04/10 06:18:22;;;;;;;35.57;26.43;;;;;;;;;;5076752;28;20448;-55
2021/04/10 06:20:49;;;;;;;37.50;26.77;;;;;;;;;;5076562;28;20467;-54
2021/04/10 06:23:16;;;;;;;34.87;26.57;;;;;;;;;;5086895;28;20456;-49
2021/04/10 06:28:51;;;;;;;36.30;25.80;;;;;;;;;;5077616;28;20499;-51
2021/04/10 06:31:23;;;;;;;32.67;24.13;;;;;;;;;;5076996;28;20463;-51
2021/04/10 06:33:51;;;;;;;36.00;24.93;;;;;;;;;;5082343;28;20467;-56
2021/04/10 06:36:19;;;;;;;30.70;25.63;;;;;;;;;;5062047;28;20489;-55
2021/04/10 06:38:47;;;;;;;35.57;25.37;;;;;;;;;;5055875;28;20473;-51
2021/04/10 06:41:31;;;;;;;35.50;24.73;;;;;;;;;;5055859;28;20458;-56
2021/04/10 06:43:59;;;;;;;33.47;25.57;;;;;;;;;;5055476;28;20445;-55
2021/04/10 06:46:28;;;;;;;36.27;26.80;;;;;;;;;;5055835;28;20471;-54
2021/04/10 06:49:03;;;;;;;33.63;24.07;;;;;;;;;;5055484;28;20486;-55
2021/04/10 06:51:32;;;;;;;32.40;23.77;;;;;;;;;;5054577;28;20516;-59
2021/04/10 06:54:02;;;;;;;30.57;23.93;;;;;;;;;;5054565;28;20465;-53
2021/04/10 06:56:41;;;;;;;39.10;27.23;;;;;;;;;;5055427;28;20454;-50
2021/04/10 06:59:12;;;;;;;36.43;26.63;;;;;;;;;;5066430;28;20510;-51
2021/04/10 07:01:40;;;;;;;36.63;25.70;;;;;;;;;;5075209;28;20444;-54
2021/04/10 07:04:09;;;;;;;33.57;24.80;;;;;;;;;;5075319;28;20452;-58
2021/04/10 07:06:38;;;;;;;34.90;25.53;;;;;;;;;;5075391;28;20528;-60
2021/04/10 07:09:05;;;;;;;31.23;23.90;;;;;;;;;;5075911;28;20644;-52
2021/04/10 07:11:33;;;;;;;27.93;22.47;;;;;;;;;;5075737;28;20460;-51
2021/04/10 07:14:01;;;;;;;38.23;25.33;;;;;;;;;;5074880;28;20484;-55
2021/04/10 07:16:38;;;;;;;30.67;22.40;;;;;;;;;;5083576;28;20457;-50
2021/04/10 07:19:13;;;;;;;33.77;22.97;;;;;;;;;;5067091;28;20489;-55
2021/04/10 07:21:42;;;;;;;29.43;21.30;;;;;;;;;;5094816;28;20467;-52
2021/04/10 07:24:10;;;;;;;31.23;22.60;;;;;;;;;;5083831;28;20685;-59
2021/04/10 07:26:47;;;;;;;29.27;22.40;;;;;;;;;;5075494;28;20493;-59
2021/04/10 07:29:34;;;;;;;28.77;21.67;;;;;;;;;;5075342;28;20828;-58
2021/04/10 07:32:02;;;;;;;29.00;21.27;;;;;;;;;;5064558;28;20456;-58
2021/04/10 07:34:31;;;;;;;24.03;19.47;;;;;;;;;;5089326;28;20469;-54
2021/04/10 07:37:04;;;;;;;27.63;19.33;;;;;;;;;;5047285;28;20462;-54
2021/04/10 07:40:07;;;;;;;21.47;16.90;;;;;;;;;;5068108;28;20484;-53
2021/04/10 07:42:36;;;;;;;23.70;19.43;;;;;;;;;;5091602;28;20463;-53
2021/04/10 07:45:03;;;;;;;26.80;18.83;;;;;;;;;;5076559;28;20468;-56
2021/04/10 07:47:35;;;;;;;22.80;16.80;;;;;;;;;;5073922;28;20457;-51
2021/04/10 07:50:19;;;;;;;24.20;17.73;;;;;;;;;;5074510;28;20437;-57
2021/04/10 07:53:18;;;;;;;25.97;18.00;;;;;;;;;;5073898;28;21055;-53
2021/04/10 07:55:44;;;;;;;27.57;18.27;;;;;;;;;;5074169;28;20453;-53
2021/04/10 07:58:31;;;;;;;25.60;17.47;;;;;;;;;;5073497;28;20708;-52
2021/04/10 08:00:59;;;;;;;23.80;18.63;;;;;;;;;;5060106;28;20458;-59
2021/04/10 08:03:34;;;;;;;23.07;18.00;;;;;;;;;;5073362;28;20457;-53
2021/04/10 08:06:14;;;;;;;23.10;18.60;;;;;;;;;;5072995;28;20532;-48
2021/04/10 08:08:48;;;;;;;18.53;15.73;;;;;;;;;;5072773;28;20518;-53
2021/04/10 08:11:42;;;;;;;26.47;17.63;;;;;;;;;;5073582;28;20439;-55
2021/04/10 08:14:11;;;;;;;26.80;16.63;;;;;;;;;;5027426;28;20528;-60
2021/04/10 08:17:00;;;;;;;22.73;17.13;;;;;;;;;;5073624;28;20441;-53
2021/04/10 08:19:49;;;;;;;21.90;16.20;;;;;;;;;;5086216;28;20468;-56
2021/04/10 08:22:34;;;;;;;22.70;16.10;;;;;;;;;;5073256;28;20452;-56
2021/04/10 08:25:07;;;;;;;24.97;17.40;;;;;;;;;;5073142;28;20445;-59
2021/04/10 08:27:35;;;;;;;23.13;17.23;;;;;;;;;;5082983;28;20506;-52
2021/04/10 08:30:05;;;;;;;20.97;17.40;;;;;;;;;;5094424;28;20455;-54
2021/04/10 08:32:32;;;;;;;21.10;16.50;;;;;;;;;;5093816;28;20462;-54
2021/04/10 08:35:00;;;;;;;24.77;17.57;;;;;;;;;;5093994;28;20424;-50
2021/04/10 08:37:33;;;;;;;24.30;19.23;;;;;;;;;;5094888;28;20464;-51
2021/04/10 08:40:01;;;;;;;20.67;16.07;;;;;;;;;;5085397;28;20491;-59
2021/04/10 08:42:28;;;;;;;17.93;15.47;;;;;;;;;;5094466;28;20657;-57
2021/04/10 08:45:02;;;;;;;24.40;18.47;;;;;;;;;;5093143;28;20474;-52
2021/04/10 08:47:29;;;;;;;20.77;15.03;;;;;;;;;;5094110;28;20460;-56
2021/04/10 08:49:56;;;;;;;23.13;14.57;;;;;;;;;;5094174;28;20446;-57
2021/04/10 08:52:33;;;;;;;15.77;13.90;;;;;;;;;;5088206;28;20442;-52
2021/04/10 08:55:06;;;;;;;16.37;13.97;;;;;;;;;;5103410;28;20443;-56
2021/04/10 09:03:51;;;;;;;12.77;10.80;;;;;;;;;;5095978;28;20478;-53
2021/04/10 09:06:18;;;;;;;20.10;14.67;;;;;;;;;;5096958;28;20593;-54
2021/04/10 09:08:45;;;;;;;12.20;11.00;;;;;;;;;;5097558;28;20498;-55
2021/04/10 09:11:21;;;;;;;14.77;11.77;;;;;;;;;;5100830;28;20565;-49
2021/04/10 09:13:57;;;;;;;15.80;11.70;;;;;;;;;;5096550;28;20443;-51
2021/04/10 09:16:40;;;;;;;13.80;10.83;;;;;;;;;;5097715;28;20452;-53
2021/04/10 09:19:16;;;;;;;14.80;11.60;;;;;;;;;;5068080;28;20482;-53
2021/04/10 09:21:45;;;;;;;11.87;10.03;;;;;;;;;;5060909;28;20452;-56
2021/04/10 09:27:21;;;;;;;13.00;10.40;;;;;;;;;;5074370;28;20463;-51
2021/04/10 09:29:59;;;;;;;15.27;10.50;;;;;;;;;;5077119;28;20465;-52
2021/04/10 09:32:44;;;;;;;15.33;9.07;;;;;;;;;;5063973;28;20461;-54
2021/04/10 09:35:11;;;;;;;11.87;8.87;;;;;;;;;;5074912;28;20497;-53
2021/04/10 09:38:02;;;;;;;14.13;9.80;;;;;;;;;;5071177;28;20520;-59
2021/04/10 09:40:48;;;;;;;19.03;12.10;;;;;;;;;;5077548;28;20449;-48
2021/04/10 09:43:18;;;;;;;11.50;9.40;;;;;;;;;;5089430;28;20506;-54
2021/04/10 09:45:45;;;;;;;13.77;10.17;;;;;;;;;;5097517;28;20448;-52
2021/04/10 09:48:36;;;;;;;15.03;11.53;;;;;;;;;;5097551;28;20479;-58
2021/04/10 09:51:17;;;;;;;10.73;8.27;;;;;;;;;;5081193;28;20492;-53
2021/04/10 09:53:57;;;;;;;14.87;9.20;;;;;;;;;;5077592;28;20725;-53
2021/04/10 09:56:36;;;;;;;10.57;8.70;;;;;;;;;;5077696;28;20461;-53
2021/04/10 09:59:05;;;;;;;9.20;7.67;;;;;;;;;;5087969;28;20649;-58
2021/04/10 10:01:39;;;;;;;10.20;8.20;;;;;;;;;;5097303;28;20460;-55
2021/04/10 10:04:16;;;;;;;9.77;7.63;;;;;;;;;;5097185;28;20463;-55
2021/04/10 10:06:49;;;;;;;8.77;7.87;;;;;;;;;;5096682;28;20455;-55
2021/04/10 10:09:23;;;;;;;12.97;8.60;;;;;;;;;;5092916;28;20460;-58
2021/04/10 10:11:58;;;;;;;10.57;8.30;;;;;;;;;;5096790;28;20454;-53
2021/04/10 10:14:45;;;;;;;9.10;8.10;;;;;;;;;;5091544;28;20452;-54
2021/04/10 10:17:12;;;;;;;11.70;9.43;;;;;;;;;;5090074;28;20445;-56
2021/04/10 10:19:39;;;;;;;12.60;10.07;;;;;;;;;;5096093;28;20455;-54
2021/04/10 10:22:26;;;;;;;15.93;10.20;;;;;;;;;;5096007;28;20436;-53
2021/04/10 10:27:56;;;;;;;12.87;8.97;;;;;;;;;;5093776;28;20556;-55
2021/04/10 10:30:24;;;;;;;13.50;10.50;;;;;;;;;;5095301;28;20487;-57
2021/04/10 10:33:27;;;;;;;12.60;9.73;;;;;;;;;;5095820;28;20524;-58
2021/04/10 10:35:54;;;;;;;13.23;10.70;;;;;;;;;;5111928;28;20457;-55
2021/04/10 10:38:23;;;;;;;15.87;10.03;;;;;;;;;;5116885;28;20448;-55
2021/04/10 10:41:10;;;;;;;14.27;10.10;;;;;;;;;;5098353;28;20492;-54
2021/04/10 10:43:37;;;;;;;13.77;10.37;;;;;;;;;;5094416;28;20466;-51
2021/04/10 10:46:05;;;;;;;10.37;8.87;;;;;;;;;;5095541;28;20440;-54
2021/04/10 10:48:34;;;;;;;11.53;9.17;;;;;;;;;;5095465;28;20536;-56
2021/04/10 10:51:05;;;;;;;13.90;10.40;;;;;;;;;;5095365;28;20448;-54
2021/04/10 10:53:33;;;;;;;12.50;9.77;;;;;;;;;;5094747;28;20448;-55
2021/04/10 10:56:01;;;;;;;10.93;8.93;;;;;;;;;;5095567;28;20475;-49
2021/04/10 10:58:32;;;;;;;12.00;9.50;;;;;;;;;;5095655;28;20506;-57
2021/04/10 11:01:31;;;;;;;12.93;10.77;;;;;;;;;;5078289;28;20456;-52
2021/04/10 11:04:00;;;;;;;14.93;9.60;;;;;;;;;;5095030;28;20448;-53
2021/04/10 11:06:28;;;;;;;13.70;11.70;;;;;;;;;;5095397;28;20437;-59
2021/04/10 11:09:17;;;;;;;15.90;11.50;;;;;;;;;;5095005;28;20488;-55
2021/04/10 11:11:46;;;;;;;12.40;9.90;;;;;;;;;;5093145;28;20455;-58
2021/04/10 11:14:51;;;;;;;15.93;12.00;;;;;;;;;;5089861;28;20449;-56
2021/04/10 11:17:29;;;;;;;13.50;12.10;;;;;;;;;;5077045;28;20472;-56
2021/04/10 11:19:58;;;;;;;12.90;10.50;;;;;;;;;;5075830;28;20437;-53
2021/04/10 11:22:32;;;;;;;16.03;11.77;;;;;;;;;;5094284;28;20463;-58
2021/04/10 11:25:00;;;;;;;16.77;12.73;;;;;;;;;;5094351;28;20475;-55
2021/04/10 11:27:28;;;;;;;18.40;11.83;;;;;;;;;;5078943;28;20480;-56
2021/04/10 11:30:10;;;;;;;14.83;12.10;;;;;;;;;;5095187;28;20444;-51
2021/04/10 11:32:40;;;;;;;12.80;10.30;;;;;;;;;;5091134;28;20464;-53
2021/04/10 11:35:10;;;;;;;14.70;11.77;;;;;;;;;;5076715;28;20437;-56
2021/04/10 11:40:42;;;;;;;21.37;15.30;;;;;;;;;;5094667;28;20446;-53
2021/04/10 11:43:13;;;;;;;15.00;11.10;;;;;;;;;;5078138;28;20527;-54
2021/04/10 11:45:41;;;;;;;13.70;10.93;;;;;;;;;;5095135;28;20455;-56
2021/04/10 11:48:14;;;;;;;14.70;11.47;;;;;;;;;;5095459;28;20492;-53
2021/04/10 11:51:21;;;;;;;18.87;13.33;;;;;;;;;;5095579;28;20440;-54
2021/04/10 11:53:55;;;;;;;25.97;13.67;;;;;;;;;;5095641;28;20436;-57
2021/04/10 11:56:35;;;;;;;16.20;12.33;;;;;;;;;;5096323;28;20519;-55
2021/04/10 11:59:03;;;;;;;18.90;12.90;;;;;;;;;;5076886;28;20480;-57
2021/04/10 12:01:31;;;;;;;14.13;11.90;;;;;;;;;;5096016;28;20444;-51
2021/04/10 12:04:20;;;;;;;14.80;11.27;;;;;;;;;;5095873;28;20516;-56
2021/04/10 12:06:47;;;;;;;19.97;12.27;;;;;;;;;;5094640;28;20448;-58
2021/04/10 12:09:15;;;;;;;14.40;11.27;;;;;;;;;;5094787;28;20488;-55
2021/04/10 12:11:47;;;;;;;13.63;11.50;;;;;;;;;;5094662;28;20457;-55
2021/04/10 12:14:15;;;;;;;13.50;11.73;;;;;;;;;;5094404;28;20448;-53
2021/04/10 12:21:57;;;;;;;14.23;11.20;;;;;;;;;;5073715;28;20472;-54
2021/04/10 12:24:52;;;;;;;15.90;11.00;;;;;;;;;;5075355;28;20429;-56
2021/04/10 12:27:39;;;;;;;15.57;11.30;;;;;;;;;;5074948;28;20915;-56
2021/04/10 12:30:09;;;;;;;17.70;11.37;;;;;;;;;;5075102;28;20488;-48
2021/04/10 12:32:37;;;;;;;13.40;11.63;;;;;;;;;;5075571;28;20449;-57
2021/04/10 12:35:28;;;;;;;15.70;9.27;;;;;;;;;;5078764;28;20429;-56
2021/04/10 12:37:58;;;;;;;16.30;9.67;;;;;;;;;;5062013;28;20456;-53
2021/04/10 12:43:13;;;;;;;11.37;9.10;;;;;;;;;;5044016;28;20449;-55
2021/04/10 12:45:52;;;;;;;19.30;12.20;;;;;;;;;;5079450;28;20461;-58
2021/04/10 12:49:00;;;;;;;16.63;13.00;;;;;;;;;;5063846;28;20511;-59
2021/04/10 12:51:29;;;;;;;14.23;12.50;;;;;;;;;;5071179;28;20453;-55
2021/04/10 12:57:09;;;;;;;18.10;13.77;;;;;;;;;;5010953;28;20473;-55
2021/04/10 12:59:37;;;;;;;17.17;12.63;;;;;;;;;;5058629;28;20450;-55
2021/04/10 13:02:13;;;;;;;19.83;13.40;;;;;;;;;;5073605;28;20452;-55
2021/04/10 13:04:40;;;;;;;20.00;12.17;;;;;;;;;;5065204;28;20462;-54
2021/04/10 13:07:12;;;;;;;17.47;13.10;;;;;;;;;;5074091;28;20449;-59
2021/04/10 13:09:47;;;;;;;19.17;13.57;;;;;;;;;;5080528;28;20495;-52
2021/04/10 13:12:15;;;;;;;18.13;13.80;;;;;;;;;;5069595;28;20496;-58
2021/04/10 13:14:42;;;;;;;20.73;15.23;;;;;;;;;;5068080;28;20442;-57
2021/04/10 13:17:24;;;;;;;16.40;13.10;;;;;;;;;;5072081;28;21161;-56
2021/04/10 13:19:52;;;;;;;19.00;14.27;;;;;;;;;;5069485;28;20720;-55
2021/04/10 13:22:20;;;;;;;18.47;13.73;;;;;;;;;;5073185;28;20457;-51
2021/04/10 13:24:48;;;;;;;18.13;14.40;;;;;;;;;;5077054;28;20449;-55
2021/04/10 13:27:15;;;;;;;17.60;14.63;;;;;;;;;;5078634;28;20449;-60
2021/04/10 13:29:51;;;;;;;20.60;15.40;;;;;;;;;;5077565;28;20484;-57
2021/04/10 13:32:30;;;;;;;19.70;13.73;;;;;;;;;;5057175;28;20455;-56
2021/04/10 13:34:57;;;;;;;17.97;14.13;;;;;;;;;;5057753;28;20458;-51
2021/04/10 13:37:37;;;;;;;17.53;13.70;;;;;;;;;;5060015;28;20465;-55
2021/04/10 13:40:26;;;;;;;20.17;14.90;;;;;;;;;;5068761;28;20424;-54
2021/04/10 13:42:53;;;;;;;18.30;13.73;;;;;;;;;;5073947;28;20465;-55
2021/04/10 13:45:24;;;;;;;21.03;16.30;;;;;;;;;;5076726;28;20465;-55
2021/04/10 13:48:00;;;;;;;16.50;13.70;;;;;;;;;;5076820;28;20455;-46
2021/04/10 13:50:28;;;;;;;17.33;13.20;;;;;;;;;;5062239;28;20444;-56
2021/04/10 13:52:55;;;;;;;21.23;12.73;;;;;;;;;;5056792;28;20518;-54
2021/04/10 13:55:36;;;;;;;18.30;14.20;;;;;;;;;;5075703;28;20463;-56
2021/04/10 13:58:03;;;;;;;18.40;14.03;;;;;;;;;;5072097;28;20509;-58
2021/04/10 14:00:33;;;;;;;18.20;14.50;;;;;;;;;;5077072;28;20524;-52
2021/04/10 14:03:24;;;;;;;21.33;13.73;;;;;;;;;;5076561;28;20511;-53
2021/04/10 14:05:51;;;;;;;21.87;14.00;;;;;;;;;;5075927;28;20480;-55
2021/04/10 14:08:21;;;;;;;19.20;14.70;;;;;;;;;;5076574;28;20481;-52
2021/04/10 14:11:11;;;;;;;20.37;17.13;;;;;;;;;;5076225;28;20507;-59
2021/04/10 14:13:39;;;;;;;17.97;13.47;;;;;;;;;;5077015;28;20461;-48
2021/04/10 14:16:07;;;;;;;18.50;13.83;;;;;;;;;;5076479;28;20433;-53
2021/04/10 14:18:36;;;;;;;16.10;12.23;;;;;;;;;;5063231;28;20479;-60
2021/04/10 14:21:07;;;;;;;18.90;13.83;;;;;;;;;;5076912;28;20457;-50
2021/04/10 14:23:37;;;;;;;16.47;13.67;;;;;;;;;;5076571;28;20508;-53
2021/04/10 14:26:14;;;;;;;17.03;14.17;;;;;;;;;;5077446;28;20473;-57
2021/04/10 14:28:45;;;;;;;16.37;14.10;;;;;;;;;;5075570;28;20472;-58
2021/04/10 14:34:35;;;;;;;18.37;14.03;;;;;;;;;;5060360;28;20441;-50
2021/04/10 14:37:05;;;;;;;16.67;12.03;;;;;;;;;;5076327;28;20492;-53
2021/04/10 14:42:21;;;;;;;16.80;13.57;;;;;;;;;;5055861;28;20469;-55
2021/04/10 14:45:24;;;;;;;14.73;13.10;;;;;;;;;;5056413;28;20484;-55
2021/04/10 14:47:52;;;;;;;17.67;12.90;;;;;;;;;;5055743;28;20485;-51
2021/04/10 14:50:19;;;;;;;15.17;12.80;;;;;;;;;;5073564;28;20441;-48
2021/04/10 14:52:48;;;;;;;16.10;11.53;;;;;;;;;;5065247;28;20491;-49
2021/04/10 14:55:16;;;;;;;22.13;12.10;;;;;;;;;;5068777;28;20533;-54
2021/04/10 14:57:52;;;;;;;14.73;12.23;;;;;;;;;;5073275;28;20492;-53
2021/04/10 15:00:21;;;;;;;16.53;13.50;;;;;;;;;;5073579;28;20456;-49
2021/04/10 15:02:48;;;;;;;15.50;11.53;;;;;;;;;;5076003;28;20496;-55
2021/04/10 15:05:40;;;;;;;17.30;14.07;;;;;;;;;;5075683;28;20445;-57
2021/04/10 15:08:08;;;;;;;19.10;11.67;;;;;;;;;;5075602;28;20608;-57
2021/04/10 15:10:38;;;;;;;14.93;11.27;;;;;;;;;;5074793;28;20433;-55
2021/04/10 15:13:05;;;;;;;15.47;12.00;;;;;;;;;;5073842;28;20481;-50
2021/04/10 15:15:32;;;;;;;14.93;10.43;;;;;;;;;;5074178;28;20485;-56
2021/04/10 15:17:59;;;;;;;12.93;9.90;;;;;;;;;;5075562;28;20466;-55
2021/04/10 15:20:26;;;;;;;14.97;9.87;;;;;;;;;;5074455;28;20664;-54
2021/04/10 15:23:01;;;;;;;12.60;9.50;;;;;;;;;;5074324;28;20883;-57
2021/04/10 15:26:00;;;;;;;10.70;9.50;;;;;;;;;;5075651;28;20460;-54
2021/04/10 15:32:20;;;;;;;12.97;8.67;;;;;;;;;;5074845;28;20461;-50
2021/04/10 15:34:50;;;;;;;10.30;8.80;;;;;;;;;;5085227;28;20476;-54
2021/04/10 15:37:21;;;;;;;10.53;7.60;;;;;;;;;;5094714;28;20424;-50
2021/04/10 15:40:05;;;;;;;10.63;7.63;;;;;;;;;;5092384;28;20507;-51
2021/04/10 15:42:50;;;;;;;10.73;7.87;;;;;;;;;;5090098;28;20441;-50
2021/04/10 15:45:19;;;;;;;8.20;6.63;;;;;;;;;;5094267;28;20456;-53